Tyronza, AR (72386)

8:59 AM CST en Noviembre 26, 2014 (GMT -0600)
West Memphis Municipal | Change Station
CLOSE
Current Station
Aeropuerto
Location: West Memphis,
Altura: 213 ft
Estaciones meteorológicas cercanas

Alt 213 ft 35.14 °N, 90.23 °W | Updated 6 minutes ago

Despejado
Despejado
39 ° F
Sensación térmica 32 ° F
N
12
Viento Variable Viento desde SSE

Hoy
Alta -- | Baja -- ° F
--% Posibilidad de precipitaciones
Ayer
Alta -- | Baja -- ° F
Precip. -- pul
6:47 AM 4:49 PM
Creciente, 20% visible
Presión 30.12 pul
Visibilidad 10.0 Millas
Nubes Despejado
Vientos helados 32 ° F
Punto de rocío 31 ° F
Humedad 73%
Precipitaciones 0.00 pul
Espesor de la nieve No disponible.
UV 1 de una escala de 12
Polen .50 de una escala de 12
Calidad del aire No disponible.
Flu Activity No disponible.
METAR KAWM 261453Z AUTO 16010KT 10SM CLR 04/M01 A3011 RMK AO2 SLP197 T00391006 58006

More Conditions Fewer Conditions

Presión 30.12 pul
Visibilidad 10.0 Millas
Nubes Despejado
Vientos helados 32 ° F
Punto de rocío 31 ° F
Humedad 73%
Precipitaciones 0.00 pul
Espesor de la nieve No disponible.
UV 1 de una escala de 12
Polen .50 de una escala de 12
Calidad del aire No disponible.
Flu Activity No disponible.
METAR KAWM 261453Z AUTO 16010KT 10SM CLR 04/M01 A3011 RMK AO2 SLP197 T00391006 58006

More Conditions Fewer Conditions

10-Day Weather Forecast

Almanac

Astronomía

Nov. 26, 2014 Salida Puesta
Hora real
Crepúsculo civil
Crepúsculo náutico
Crepúsculo astronómico
Luna
Horas de luz
Horas de luz
Tomorrow will be .
, % of the Moon is Illuminated

Extremos de hoy

Máximos del estado Bajos del estado

Community

WunderPhotos

Upload Photos

1,773,756 ¡fotos cargadas!

WunderBlogs® & News

Nearby

Calidad del aire

  Calidad del aire Índice AQ Contaminante
Not available.

Grosos de nieve

Estación Profundido Altura

Actividad de terremotos

Ciudad Distance Mag. Tiempo y dato
Magnitud mínima muestra es 2,5.

Temperaturas de aguas costeras

Lugar Temperatura

Estaciones meteorológicas cercanas